createdAt,value
2022-11-23T00:01:39.487Z,92.71
2022-11-23T00:04:10.178Z,92.55
2022-11-23T00:06:36.773Z,92.49
2022-11-23T00:09:04.065Z,92.88
2022-11-23T00:11:30.854Z,92.42
2022-11-23T00:13:57.350Z,92.09
2022-11-23T00:16:26.164Z,92.07
2022-11-23T00:18:53.517Z,91.70
2022-11-23T00:21:22.568Z,91.64
2022-11-23T00:24:11.233Z,91.43
2022-11-23T00:26:37.782Z,91.54
2022-11-23T00:29:04.317Z,91.35
2022-11-23T00:31:30.896Z,90.32
2022-11-23T00:33:58.556Z,90.38
2022-11-23T00:36:27.259Z,89.68
2022-11-23T00:38:54.126Z,90.16
2022-11-23T00:41:22.620Z,90.26
2022-11-23T00:43:49.914Z,90.02
2022-11-23T00:46:19.001Z,89.96
2022-11-23T00:48:46.942Z,89.33
2022-11-23T00:51:15.468Z,89.37
2022-11-23T00:53:45.673Z,88.51
2022-11-23T00:56:16.205Z,88.89
2022-11-23T00:58:42.794Z,88.27
2022-11-23T01:01:11.753Z,87.55
2022-11-23T01:03:39.989Z,87.96
2022-11-23T01:06:08.864Z,88.02
2022-11-23T01:08:37.302Z,87.81
2022-11-23T01:11:07.214Z,86.46
2022-11-23T01:13:35.700Z,86.46
2022-11-23T01:16:02.632Z,85.88
2022-11-23T01:18:29.191Z,86.26
2022-11-23T01:20:55.720Z,86.16
2022-11-23T01:23:22.382Z,86.45
2022-11-23T01:25:55.639Z,86.13
2022-11-23T01:28:24.884Z,86.17
2022-11-23T01:30:51.419Z,85.83
2022-11-23T01:33:18.032Z,86.18
2022-11-23T01:35:46.456Z,86.19
2022-11-23T01:38:17.979Z,85.92
2022-11-23T01:40:45.018Z,84.86
2022-11-23T01:43:15.387Z,85.17
2022-11-23T01:45:44.467Z,85.65
2022-11-23T01:48:17.901Z,85.29
2022-11-23T01:50:47.529Z,84.99
2022-11-23T01:53:14.912Z,84.70
2022-11-23T01:55:44.716Z,84.26
2022-11-23T01:58:15.302Z,84.32
2022-11-23T02:00:43.292Z,84.23
2022-11-23T02:03:09.823Z,84.48
2022-11-23T02:05:44.035Z,84.67
2022-11-23T02:08:16.833Z,84.94
2022-11-23T02:10:45.349Z,84.76
2022-11-23T02:13:13.330Z,84.97
2022-11-23T02:15:40.784Z,85.55
2022-11-23T02:18:13.340Z,85.54
2022-11-23T02:20:39.960Z,85.47
2022-11-23T02:23:18.693Z,85.68
2022-11-23T02:25:57.533Z,85.74
2022-11-23T02:28:28.947Z,85.57
2022-11-23T02:30:56.120Z,85.49
2022-11-23T02:33:23.877Z,85.58
2022-11-23T02:35:52.437Z,85.83
2022-11-23T02:38:19.421Z,85.96
2022-11-23T02:40:46.408Z,86.10
2022-11-23T02:43:14.917Z,86.21
2022-11-23T02:45:48.433Z,86.06
2022-11-23T02:48:15.623Z,86.27
2022-11-23T02:50:42.145Z,86.00
2022-11-23T02:53:09.155Z,85.24
2022-11-23T02:55:36.058Z,85.59
2022-11-23T02:58:03.980Z,85.36
2022-11-23T03:00:32.958Z,85.57
2022-11-23T03:03:01.961Z,85.74
2022-11-23T03:05:28.993Z,85.60
2022-11-23T03:07:55.850Z,85.89
2022-11-23T03:10:22.374Z,86.08
2022-11-23T03:12:54.749Z,86.19
2022-11-23T03:15:22.069Z,85.67
2022-11-23T03:17:50.585Z,85.37
2022-11-23T03:20:17.311Z,85.43
2022-11-23T03:22:46.246Z,85.02
2022-11-23T03:25:14.537Z,85.17
2022-11-23T03:27:42.540Z,85.01
2022-11-23T03:30:10.192Z,85.09
2022-11-23T03:32:37.565Z,84.77
2022-11-23T03:35:06.629Z,85.22
2022-11-23T03:37:35.289Z,85.24
2022-11-23T03:40:02.188Z,85.64
2022-11-23T03:42:51.310Z,85.93
2022-11-23T03:45:17.976Z,86.29
2022-11-23T03:47:44.514Z,86.58
2022-11-23T03:50:12.720Z,86.73
2022-11-23T03:52:39.357Z,86.88
2022-11-23T03:55:06.752Z,87.09
2022-11-23T03:57:34.042Z,87.35
2022-11-23T04:00:04.252Z,87.44
2022-11-23T04:02:39.817Z,87.26
2022-11-23T04:05:12.341Z,87.53
2022-11-23T04:07:58.936Z,87.64
2022-11-23T04:10:26.581Z,87.96
2022-11-23T04:13:05.483Z,87.73
2022-11-23T04:15:32.150Z,87.76
2022-11-23T04:17:59.254Z,87.87
2022-11-23T04:20:27.262Z,87.99
2022-11-23T04:22:53.996Z,88.13
2022-11-23T04:25:20.674Z,88.06
2022-11-23T04:27:49.702Z,88.18
2022-11-23T04:30:16.650Z,88.46
2022-11-23T04:32:44.645Z,88.59
2022-11-23T04:35:12.276Z,88.57
2022-11-23T04:37:41.453Z,88.40
2022-11-23T04:40:10.278Z,88.43
2022-11-23T04:42:42.973Z,88.05
2022-11-23T04:45:10.281Z,88.11
2022-11-23T04:47:37.864Z,88.50
2022-11-23T04:50:09.999Z,88.23
2022-11-23T04:52:36.857Z,88.40
2022-11-23T04:55:09.553Z,88.51
2022-11-23T04:57:41.490Z,88.03
2022-11-23T05:00:09.468Z,87.93
2022-11-23T05:02:36.946Z,88.01
2022-11-23T05:05:14.587Z,88.16
2022-11-23T05:07:41.527Z,88.00
2022-11-23T05:10:10.652Z,88.01
2022-11-23T05:12:37.403Z,87.93
2022-11-23T05:15:04.781Z,87.74
2022-11-23T05:17:35.432Z,87.58
2022-11-23T05:20:05.181Z,87.75
2022-11-23T05:22:34.321Z,88.09
2022-11-23T05:25:00.872Z,87.86
2022-11-23T05:27:30.983Z,87.93
2022-11-23T05:29:57.519Z,87.97
2022-11-23T05:32:24.159Z,88.11
2022-11-23T05:34:52.372Z,87.93
2022-11-23T05:37:19.200Z,88.31
2022-11-23T05:39:53.890Z,88.07
2022-11-23T05:42:21.755Z,86.99
2022-11-23T05:44:51.189Z,87.20
2022-11-23T05:47:22.338Z,87.83
2022-11-23T05:49:49.097Z,87.76
2022-11-23T05:52:18.205Z,87.71
2022-11-23T05:54:46.134Z,87.66
2022-11-23T05:57:14.618Z,87.50
2022-11-23T05:59:42.968Z,86.86
2022-11-23T06:02:16.713Z,86.99
2022-11-23T06:04:43.885Z,87.63
2022-11-23T06:07:14.939Z,87.56
2022-11-23T06:10:02.549Z,87.38
2022-11-23T06:12:30.030Z,86.95
2022-11-23T06:14:58.663Z,87.44
2022-11-23T06:17:27.858Z,87.56
2022-11-23T06:20:00.260Z,87.90
2022-11-23T06:22:27.230Z,87.71
2022-11-23T06:25:00.945Z,87.75
2022-11-23T06:27:41.945Z,87.70
2022-11-23T06:30:20.560Z,87.51
2022-11-23T06:32:49.416Z,87.57
2022-11-23T06:35:16.718Z,87.79
2022-11-23T06:37:44.287Z,87.55
2022-11-23T06:40:12.940Z,87.68
2022-11-23T06:42:40.540Z,87.68
2022-11-23T06:45:29.792Z,87.43
2022-11-23T06:48:01.851Z,87.78
2022-11-23T06:50:29.846Z,87.57
2022-11-23T06:52:57.210Z,86.64
2022-11-23T06:55:34.275Z,86.91
2022-11-23T06:58:01.221Z,86.88
2022-11-23T07:00:28.483Z,86.46
2022-11-23T07:02:56.203Z,85.77
2022-11-23T07:05:25.254Z,85.77
2022-11-23T07:07:52.706Z,85.43
2022-11-23T07:10:25.509Z,85.03
2022-11-23T07:13:03.799Z,84.72
2022-11-23T07:15:30.795Z,84.11
2022-11-23T07:17:57.381Z,83.89
2022-11-23T07:20:26.507Z,83.92
2022-11-23T07:22:59.460Z,83.67
2022-11-23T07:25:26.165Z,83.71
2022-11-23T07:27:55.460Z,83.47
2022-11-23T07:30:29.004Z,83.76
2022-11-23T07:32:59.448Z,83.47
2022-11-23T07:35:27.849Z,83.30
2022-11-23T07:37:54.501Z,82.23
2022-11-23T07:40:21.328Z,82.64
2022-11-23T07:42:47.978Z,82.28
2022-11-23T07:45:15.304Z,81.98
2022-11-23T07:47:45.208Z,81.57
2022-11-23T07:50:13.073Z,81.59
2022-11-23T07:52:40.936Z,80.21
2022-11-23T07:55:08.321Z,80.67
2022-11-23T07:57:34.817Z,79.87
2022-11-23T08:00:01.418Z,79.36
2022-11-23T08:02:27.984Z,77.84
2022-11-23T08:04:54.591Z,78.13
2022-11-23T08:07:21.135Z,78.65
2022-11-23T08:09:49.008Z,78.07
2022-11-23T08:12:15.598Z,76.96
2022-11-23T08:14:42.165Z,77.60
2022-11-23T08:17:08.675Z,77.44
2022-11-23T08:19:35.210Z,77.55
2022-11-23T08:22:01.738Z,78.04
2022-11-23T08:24:28.217Z,76.75
2022-11-23T08:26:56.318Z,77.25
2022-11-23T08:29:22.934Z,76.25
2022-11-23T08:31:49.412Z,76.95
2022-11-23T08:34:15.925Z,76.41
2022-11-23T08:36:42.470Z,76.27
2022-11-23T08:39:09.050Z,76.94
2022-11-23T08:41:35.557Z,76.08
2022-11-23T08:44:03.446Z,76.67
2022-11-23T08:46:29.926Z,76.15
2022-11-23T08:48:56.557Z,75.76
2022-11-23T08:51:23.060Z,75.71
2022-11-23T08:53:49.588Z,75.99
2022-11-23T08:56:16.318Z,75.54
2022-11-23T08:58:42.842Z,74.85
2022-11-23T09:01:11.936Z,73.92
2022-11-23T09:03:38.504Z,74.68
2022-11-23T09:06:05.644Z,73.73
2022-11-23T09:08:32.251Z,73.62
2022-11-23T09:11:00.265Z,72.94
2022-11-23T09:13:26.796Z,73.11
2022-11-23T09:15:57.235Z,72.23
2022-11-23T09:18:25.300Z,71.43
2022-11-23T09:20:51.883Z,70.45
2022-11-23T09:23:18.497Z,69.99
2022-11-23T09:25:45.038Z,71.01
2022-11-23T09:28:11.539Z,71.34
2022-11-23T09:30:38.151Z,70.41
2022-11-23T09:33:04.804Z,69.54
2022-11-23T09:35:32.620Z,69.74
2022-11-23T09:37:59.483Z,69.46
2022-11-23T09:40:30.405Z,70.02
2022-11-23T09:43:26.450Z,68.44
2022-11-23T09:45:54.359Z,68.99
2022-11-23T09:48:30.783Z,69.48
2022-11-23T09:51:04.863Z,69.90
2022-11-23T09:53:37.191Z,69.67
2022-11-23T09:56:05.189Z,69.31
2022-11-23T09:58:39.136Z,69.52
2022-11-23T10:01:07.963Z,67.40
2022-11-23T10:03:37.573Z,68.13
2022-11-23T10:06:16.628Z,68.37
2022-11-23T10:08:54.077Z,68.54
2022-11-23T10:11:35.101Z,68.42
2022-11-23T10:14:13.255Z,67.48
2022-11-23T10:16:47.579Z,67.75
2022-11-23T10:19:25.304Z,68.99
2022-11-23T10:22:05.081Z,66.40
2022-11-23T10:24:36.399Z,68.09
2022-11-23T10:27:06.793Z,67.98
2022-11-23T10:29:35.957Z,67.58
2022-11-23T10:32:06.935Z,67.68
2022-11-23T10:34:46.239Z,67.46
2022-11-23T10:37:15.903Z,68.10
2022-11-23T10:39:42.402Z,66.33
2022-11-23T10:42:18.250Z,66.82
2022-11-23T10:44:45.742Z,67.15
2022-11-23T10:47:34.173Z,66.14
2022-11-23T10:50:01.019Z,64.95
2022-11-23T10:52:30.695Z,63.77
2022-11-23T10:55:00.287Z,62.78
2022-11-23T10:57:31.744Z,61.94
2022-11-23T10:59:59.760Z,62.80
2022-11-23T11:02:26.998Z,61.21
2022-11-23T11:05:21.165Z,60.42
2022-11-23T11:07:49.406Z,60.62
2022-11-23T11:10:32.694Z,60.76
2022-11-23T11:12:59.538Z,59.88
2022-11-23T11:15:26.079Z,59.13
2022-11-23T11:17:55.232Z,60.21
2022-11-23T11:20:31.301Z,59.09
2022-11-23T11:23:01.633Z,59.03
2022-11-23T11:25:31.477Z,57.37
2022-11-23T11:27:59.268Z,58.36
2022-11-23T11:30:30.626Z,58.79
2022-11-23T11:33:05.011Z,58.40
2022-11-23T11:35:35.302Z,58.31
2022-11-23T11:38:11.708Z,58.55
2022-11-23T11:40:45.376Z,59.84
2022-11-23T11:43:17.707Z,58.21
2022-11-23T11:46:13.087Z,57.66
2022-11-23T11:48:37.962Z,58.06
2022-11-23T11:51:08.672Z,57.68
2022-11-23T11:53:43.597Z,57.60
2022-11-23T11:56:18.704Z,59.02
2022-11-23T11:58:55.350Z,59.40
2022-11-23T12:01:32.350Z,60.00
2022-11-23T12:04:05.453Z,58.76
2022-11-23T12:06:39.667Z,61.55
2022-11-23T12:09:13.579Z,58.78
2022-11-23T12:11:40.177Z,60.07
2022-11-23T12:14:12.370Z,59.77
2022-11-23T12:16:59.309Z,60.22
2022-11-23T12:19:40.659Z,57.81
2022-11-23T12:22:34.198Z,57.57
2022-11-23T12:25:15.213Z,57.13
2022-11-23T12:27:49.296Z,56.40
2022-11-23T12:30:22.624Z,56.89
2022-11-23T12:33:12.602Z,56.57
2022-11-23T12:35:53.738Z,57.03
2022-11-23T12:38:30.258Z,55.67
2022-11-23T12:41:09.873Z,56.01
2022-11-23T12:43:50.256Z,56.99
2022-11-23T12:46:24.613Z,56.26
2022-11-23T12:49:14.581Z,56.99
2022-11-23T12:51:49.402Z,56.68
2022-11-23T12:54:31.272Z,55.32
2022-11-23T12:57:09.983Z,56.47
2022-11-23T12:59:45.396Z,57.11
2022-11-23T13:02:34.689Z,56.25
2022-11-23T13:05:23.319Z,56.90
2022-11-23T13:08:06.496Z,57.63
2022-11-23T13:10:47.761Z,57.57
2022-11-23T13:13:26.337Z,57.92
2022-11-23T13:16:11.848Z,58.44
2022-11-23T13:18:52.966Z,59.51
2022-11-23T13:21:29.213Z,59.18
2022-11-23T13:23:55.907Z,58.56
2022-11-23T13:26:24.285Z,58.92
2022-11-23T13:28:53.971Z,58.63
2022-11-23T13:31:23.903Z,58.12
2022-11-23T13:33:52.942Z,58.18
2022-11-23T13:40:06.200Z,58.17
2022-11-23T13:42:34.327Z,58.57
2022-11-23T13:45:31.417Z,58.62
2022-11-23T13:48:19.309Z,58.57
2022-11-23T13:51:00.108Z,59.39
2022-11-23T13:53:29.980Z,59.87
2022-11-23T13:55:58.586Z,59.37
2022-11-23T13:58:39.559Z,59.59
2022-11-23T14:01:08.297Z,59.48
2022-11-23T14:03:56.013Z,60.41
2022-11-23T14:06:45.831Z,59.83
2022-11-23T14:09:19.123Z,60.03
2022-11-23T14:11:56.129Z,60.25
2022-11-23T14:14:29.233Z,59.07
2022-11-23T14:17:31.938Z,58.27
2022-11-23T14:20:16.498Z,58.25
2022-11-23T14:22:55.258Z,58.35
2022-11-23T14:25:35.309Z,58.68
2022-11-23T14:28:12.038Z,58.01
2022-11-23T14:30:47.877Z,58.55
2022-11-23T14:33:29.559Z,58.50
2022-11-23T14:36:11.137Z,59.41
2022-11-23T14:39:10.505Z,59.31
2022-11-23T14:41:37.599Z,59.44
2022-11-23T14:44:05.737Z,59.93
2022-11-23T14:46:32.324Z,59.78
2022-11-23T14:49:11.968Z,59.61
2022-11-23T14:51:43.321Z,59.63
2022-11-23T14:54:11.596Z,59.99
2022-11-23T14:56:41.368Z,60.26
2022-11-23T14:59:18.086Z,60.43
2022-11-23T15:01:48.392Z,60.40
2022-11-23T15:04:24.001Z,60.41
2022-11-23T15:06:56.687Z,60.18
2022-11-23T15:09:44.657Z,60.66
2022-11-23T15:12:21.731Z,60.49
2022-11-23T15:14:48.712Z,60.70
2022-11-23T15:17:16.789Z,61.40
2022-11-23T15:19:53.439Z,60.40
2022-11-23T15:22:20.120Z,61.00
2022-11-23T15:24:46.969Z,61.19
2022-11-23T15:27:16.047Z,61.91
2022-11-23T15:29:52.254Z,62.71
2022-11-23T15:32:33.753Z,62.72
2022-11-23T15:35:05.382Z,61.11
2022-11-23T15:37:33.752Z,62.45
2022-11-23T15:40:00.752Z,63.43
2022-11-23T15:42:28.373Z,64.87
2022-11-23T15:44:55.485Z,65.14
2022-11-23T15:47:24.762Z,64.42
2022-11-23T15:49:53.143Z,64.84
2022-11-23T15:52:22.698Z,66.74
2022-11-23T15:54:49.402Z,68.24
2022-11-23T15:57:20.826Z,67.03
2022-11-23T15:59:49.053Z,66.60
2022-11-23T16:02:17.949Z,67.18
2022-11-23T16:04:45.074Z,67.50
2022-11-23T16:07:17.299Z,69.04
2022-11-23T16:09:51.580Z,70.54
2022-11-23T16:12:24.849Z,71.89
2022-11-23T16:14:51.602Z,72.07
2022-11-23T16:17:20.715Z,73.32
2022-11-23T16:19:48.505Z,73.64
2022-11-23T16:22:22.483Z,73.72
2022-11-23T16:24:54.819Z,74.73
2022-11-23T16:27:24.660Z,75.21
2022-11-23T16:29:52.242Z,76.10
2022-11-23T16:32:24.610Z,77.05
2022-11-23T16:34:51.377Z,79.19
2022-11-23T16:37:17.995Z,79.34
2022-11-23T16:39:44.586Z,80.91
2022-11-23T16:42:13.836Z,81.66
2022-11-23T16:44:42.056Z,81.57
2022-11-23T16:47:30.222Z,82.67
2022-11-23T16:49:57.254Z,83.18
2022-11-23T16:52:23.819Z,82.42
2022-11-23T16:54:50.819Z,83.12
2022-11-23T16:57:27.922Z,84.02
2022-11-23T16:59:55.216Z,84.98
2022-11-23T17:02:21.999Z,84.73
2022-11-23T17:04:48.704Z,83.54
2022-11-23T17:07:15.272Z,83.90
2022-11-23T17:09:42.093Z,83.34
2022-11-23T17:12:15.005Z,83.15
2022-11-23T17:14:45.769Z,83.38
2022-11-23T17:17:18.026Z,83.20
2022-11-23T17:19:44.678Z,84.18
2022-11-23T17:22:11.205Z,83.26
2022-11-23T17:24:37.810Z,84.84
2022-11-23T17:27:04.573Z,85.40
2022-11-23T17:29:31.371Z,85.67
2022-11-23T17:31:59.539Z,85.90
2022-11-23T17:34:26.359Z,86.16
2022-11-23T17:36:53.675Z,86.29
2022-11-23T17:39:24.337Z,86.42
2022-11-23T17:41:51.169Z,86.44
2022-11-23T17:44:17.931Z,87.26
2022-11-23T17:46:45.795Z,87.40
2022-11-23T17:49:17.379Z,87.86
2022-11-23T17:51:44.151Z,88.12
2022-11-23T17:54:10.687Z,88.55
2022-11-23T17:56:38.006Z,88.48
2022-11-23T17:59:04.848Z,88.58
2022-11-23T18:01:31.524Z,88.42
2022-11-23T18:03:58.226Z,88.65
2022-11-23T18:06:27.287Z,88.64
2022-11-23T18:08:53.891Z,88.97
2022-11-23T18:11:21.461Z,89.20
2022-11-23T18:13:48.762Z,89.22
2022-11-23T18:16:15.608Z,89.32
2022-11-23T18:18:42.357Z,89.47
2022-11-23T18:21:09.266Z,89.47
2022-11-23T18:23:37.530Z,89.11
2022-11-23T18:26:12.626Z,89.52
2022-11-23T18:28:39.271Z,89.56
2022-11-23T18:31:06.155Z,89.56
2022-11-23T18:33:32.742Z,89.64
2022-11-23T18:36:03.747Z,89.52
2022-11-23T18:38:32.595Z,89.48
2022-11-23T18:41:00.591Z,89.83
2022-11-23T18:43:27.158Z,90.10
2022-11-23T18:45:54.206Z,90.45
2022-11-23T18:48:20.869Z,90.11
2022-11-23T18:50:47.385Z,90.29
2022-11-23T18:53:14.021Z,90.50
2022-11-23T18:55:40.525Z,90.85
2022-11-23T18:58:08.426Z,90.57
2022-11-23T19:00:35.075Z,91.20
2022-11-23T19:03:02.631Z,90.81
2022-11-23T19:05:32.013Z,91.08
2022-11-23T19:08:00.892Z,91.13
2022-11-23T19:10:27.443Z,91.01
2022-11-23T19:12:54.207Z,90.96
2022-11-23T19:15:22.079Z,91.14
2022-11-23T19:17:48.726Z,91.26
2022-11-23T19:20:15.399Z,91.42
2022-11-23T19:22:42.095Z,90.86
2022-11-23T19:25:09.807Z,90.48
2022-11-23T19:27:36.484Z,90.09
2022-11-23T19:30:03.527Z,89.97
2022-11-23T19:32:31.784Z,89.68
2022-11-23T19:34:58.480Z,89.46
2022-11-23T19:37:25.153Z,90.00
2022-11-23T19:39:51.680Z,89.85
2022-11-23T19:42:18.298Z,90.14
2022-11-23T19:44:44.856Z,90.58
2022-11-23T19:47:16.466Z,90.57
2022-11-23T19:49:46.740Z,90.45
2022-11-23T19:52:13.253Z,90.75
2022-11-23T19:54:39.847Z,91.23
2022-11-23T19:57:06.369Z,90.79
2022-11-23T19:59:33.565Z,91.25
2022-11-23T20:02:00.275Z,91.02
2022-11-23T20:04:27.048Z,90.37
2022-11-23T20:06:54.869Z,90.11
2022-11-23T20:09:21.455Z,90.29
2022-11-23T20:11:51.313Z,90.37
2022-11-23T20:14:18.873Z,90.60
2022-11-23T20:16:45.526Z,90.71
2022-11-23T20:19:12.121Z,90.62
2022-11-23T20:21:38.624Z,90.54
2022-11-23T20:24:09.842Z,90.03
2022-11-23T20:26:36.652Z,89.87
2022-11-23T20:29:04.780Z,90.36
2022-11-23T20:31:33.023Z,90.69
2022-11-23T20:33:59.901Z,90.71
2022-11-23T20:36:28.257Z,90.85
2022-11-23T20:38:55.156Z,90.32
2022-11-23T20:41:26.101Z,90.48
2022-11-23T20:43:54.582Z,90.57
2022-11-23T20:46:38.617Z,90.83
2022-11-23T20:49:08.378Z,91.69
2022-11-23T20:51:35.416Z,91.12
2022-11-23T20:54:02.015Z,92.13
2022-11-23T20:56:29.921Z,92.57
2022-11-23T20:58:58.106Z,92.52
2022-11-23T21:01:24.826Z,92.59
2022-11-23T21:03:53.098Z,92.53
2022-11-23T21:06:20.970Z,92.93
2022-11-23T21:08:49.116Z,93.28
2022-11-23T21:11:16.986Z,92.82
2022-11-23T21:13:49.603Z,92.53
2022-11-23T21:16:16.621Z,92.96
2022-11-23T21:18:43.139Z,92.62
2022-11-23T21:21:09.687Z,93.42
2022-11-23T21:23:36.242Z,93.54
2022-11-23T21:26:03.921Z,93.45
2022-11-23T21:28:30.811Z,93.63
2022-11-23T21:31:04.691Z,94.36
2022-11-23T21:33:31.426Z,94.37
2022-11-23T21:36:01.618Z,94.29
2022-11-23T21:38:28.253Z,94.88
2022-11-23T21:40:56.672Z,94.59
2022-11-23T21:43:23.262Z,94.90
2022-11-23T21:45:59.653Z,94.54
2022-11-23T21:48:26.336Z,94.39
2022-11-23T21:50:58.969Z,94.67
2022-11-23T21:53:25.552Z,94.56
2022-11-23T21:55:52.050Z,94.44
2022-11-23T21:58:18.635Z,94.47
2022-11-23T22:00:45.214Z,95.25
2022-11-23T22:03:13.219Z,95.00
2022-11-23T22:05:39.715Z,95.18
2022-11-23T22:08:28.425Z,95.02
2022-11-23T22:10:53.059Z,95.12
2022-11-23T22:13:19.577Z,95.34
2022-11-23T22:15:46.162Z,95.67
2022-11-23T22:18:14.417Z,95.21
2022-11-23T22:20:41.286Z,95.57
2022-11-23T22:23:07.947Z,96.36
2022-11-23T22:25:34.568Z,96.18
2022-11-23T22:28:01.220Z,95.87
2022-11-23T22:30:27.801Z,96.10
2022-11-23T22:32:54.355Z,96.31
2022-11-23T22:35:22.415Z,96.38
2022-11-23T22:37:48.909Z,97.04
2022-11-23T22:40:15.566Z,96.11
2022-11-23T22:42:42.112Z,96.26
2022-11-23T22:45:08.896Z,96.10
2022-11-23T22:47:35.396Z,95.78
2022-11-23T22:50:02.005Z,95.63
2022-11-23T22:52:29.850Z,96.14
2022-11-23T22:54:56.365Z,95.52
2022-11-23T22:57:22.903Z,96.08
2022-11-23T22:59:49.438Z,96.92
2022-11-23T23:02:15.941Z,97.39
2022-11-23T23:04:43.457Z,97.58
2022-11-23T23:07:09.984Z,97.29
2022-11-23T23:09:37.898Z,97.61
2022-11-23T23:12:04.917Z,97.33
2022-11-23T23:14:31.838Z,97.61
2022-11-23T23:16:59.002Z,97.47
2022-11-23T23:19:25.538Z,97.75
2022-11-23T23:21:52.056Z,97.58
2022-11-23T23:24:18.623Z,97.24
2022-11-23T23:26:46.609Z,97.82
2022-11-23T23:29:13.279Z,97.82
2022-11-23T23:31:39.859Z,98.18
2022-11-23T23:34:06.601Z,98.11
2022-11-23T23:36:35.498Z,98.65
2022-11-23T23:39:03.590Z,98.67
2022-11-23T23:41:30.259Z,98.24
2022-11-23T23:43:58.211Z,97.62
2022-11-23T23:46:25.167Z,98.22
2022-11-23T23:48:51.788Z,97.87
2022-11-23T23:51:19.912Z,98.75
2022-11-23T23:53:47.225Z,98.99
2022-11-23T23:56:15.749Z,98.82
2022-11-23T23:58:42.950Z,98.77
